sensor_id;sensor_type;location;lat;lon;timestamp;temperature;humidity
6930;DHT22;3504;52.616;13.238;2022-12-18T00:00:51;-3.91;84.22
6930;DHT22;3504;52.616;13.238;2022-12-18T00:05:52;-3.97;84.63
6930;DHT22;3504;52.616;13.238;2022-12-18T00:10:53;-3.91;84.62
6930;DHT22;3504;52.616;13.238;2022-12-18T00:15:53;-3.91;84.43
6930;DHT22;3504;52.616;13.238;2022-12-18T00:20:54;-3.95;84.42
6930;DHT22;3504;52.616;13.238;2022-12-18T00:25:54;-3.88;84.38
6930;DHT22;3504;52.616;13.238;2022-12-18T00:31:10;-3.95;84.25
6930;DHT22;3504;52.616;13.238;2022-12-18T00:36:15;-4.08;84.29
6930;DHT22;3504;52.616;13.238;2022-12-18T00:41:17;-4.14;84.16
6930;DHT22;3504;52.616;13.238;2022-12-18T00:46:39;-4.14;84.47
6930;DHT22;3504;52.616;13.238;2022-12-18T00:51:40;-4.17;84.54
6930;DHT22;3504;52.616;13.238;2022-12-18T00:56:40;-4.17;84.45
6930;DHT22;3504;52.616;13.238;2022-12-18T01:01:41;-4.26;84.35
6930;DHT22;3504;52.616;13.238;2022-12-18T01:06:41;-4.33;84.50
6930;DHT22;3504;52.616;13.238;2022-12-18T01:11:42;-4.31;84.77
6930;DHT22;3504;52.616;13.238;2022-12-18T01:16:44;-4.28;84.80
6930;DHT22;3504;52.616;13.238;2022-12-18T01:21:45;-4.22;84.59
6930;DHT22;3504;52.616;13.238;2022-12-18T01:26:45;-4.15;84.71
6930;DHT22;3504;52.616;13.238;2022-12-18T01:31:48;-4.18;84.46
6930;DHT22;3504;52.616;13.238;2022-12-18T01:36:49;-4.25;83.96
6930;DHT22;3504;52.616;13.238;2022-12-18T01:41:52;-4.33;84.25
6930;DHT22;3504;52.616;13.238;2022-12-18T01:47:05;-4.36;84.70
6930;DHT22;3504;52.616;13.238;2022-12-18T01:52:05;-4.35;84.49
6930;DHT22;3504;52.616;13.238;2022-12-18T01:57:06;-4.38;84.60
6930;DHT22;3504;52.616;13.238;2022-12-18T02:02:07;-4.45;84.36
6930;DHT22;3504;52.616;13.238;2022-12-18T02:07:32;-4.39;84.84
6930;DHT22;3504;52.616;13.238;2022-12-18T02:18:43;-4.39;84.46
6930;DHT22;3504;52.616;13.238;2022-12-18T02:29:33;-4.42;83.87
6930;DHT22;3504;52.616;13.238;2022-12-18T02:34:39;-4.54;84.17
6930;DHT22;3504;52.616;13.238;2022-12-18T02:39:43;-4.56;84.34
6930;DHT22;3504;52.616;13.238;2022-12-18T02:44:50;-4.54;84.47
6930;DHT22;3504;52.616;13.238;2022-12-18T02:55:43;-4.60;84.57
6930;DHT22;3504;52.616;13.238;2022-12-18T03:01:33;-4.60;84.36
6930;DHT22;3504;52.616;13.238;2022-12-18T03:06:48;-4.53;84.60
6930;DHT22;3504;52.616;13.238;2022-12-18T03:11:56;-4.52;84.50
6930;DHT22;3504;52.616;13.238;2022-12-18T03:17:20;-4.54;84.21
6930;DHT22;3504;52.616;13.238;2022-12-18T03:22:29;-4.63;84.56
6930;DHT22;3504;52.616;13.238;2022-12-18T03:27:33;-4.67;84.37
6930;DHT22;3504;52.616;13.238;2022-12-18T03:33:08;-4.73;84.98
6930;DHT22;3504;52.616;13.238;2022-12-18T03:38:10;-4.74;84.66
6930;DHT22;3504;52.616;13.238;2022-12-18T03:48:56;-4.72;84.39
6930;DHT22;3504;52.616;13.238;2022-12-18T03:54:02;-4.64;84.64
6930;DHT22;3504;52.616;13.238;2022-12-18T03:59:08;-4.64;84.43
6930;DHT22;3504;52.616;13.238;2022-12-18T04:04:13;-4.59;84.25
6930;DHT22;3504;52.616;13.238;2022-12-18T04:09:15;-4.56;84.18
6930;DHT22;3504;52.616;13.238;2022-12-18T04:14:19;-4.72;84.11
6930;DHT22;3504;52.616;13.238;2022-12-18T04:19:24;-4.76;84.47
6930;DHT22;3504;52.616;13.238;2022-12-18T04:24:27;-4.79;84.81
6930;DHT22;3504;52.616;13.238;2022-12-18T04:29:40;-4.70;84.68
6930;DHT22;3504;52.616;13.238;2022-12-18T04:34:41;-4.63;84.56
6930;DHT22;3504;52.616;13.238;2022-12-18T04:39:42;-4.64;84.24
6930;DHT22;3504;52.616;13.238;2022-12-18T04:44:50;-4.69;84.35
6930;DHT22;3504;52.616;13.238;2022-12-18T04:49:50;-4.74;84.32
6930;DHT22;3504;52.616;13.238;2022-12-18T04:54:51;-4.77;84.54
6930;DHT22;3504;52.616;13.238;2022-12-18T04:59:51;-4.67;84.35
6930;DHT22;3504;52.616;13.238;2022-12-18T05:04:52;-4.62;84.07
6930;DHT22;3504;52.616;13.238;2022-12-18T05:09:52;-4.72;83.91
6930;DHT22;3504;52.616;13.238;2022-12-18T05:14:53;-4.79;83.94
6930;DHT22;3504;52.616;13.238;2022-12-18T05:19:53;-4.84;84.36
6930;DHT22;3504;52.616;13.238;2022-12-18T05:24:54;-4.85;84.63
6930;DHT22;3504;52.616;13.238;2022-12-18T05:29:54;-4.70;84.31
6930;DHT22;3504;52.616;13.238;2022-12-18T05:34:55;-4.64;84.28
6930;DHT22;3504;52.616;13.238;2022-12-18T05:39:57;-4.67;84.07
6930;DHT22;3504;52.616;13.238;2022-12-18T05:44:57;-4.87;83.90
6930;DHT22;3504;52.616;13.238;2022-12-18T05:49:58;-4.93;84.53
6930;DHT22;3504;52.616;13.238;2022-12-18T05:54:58;-5.04;84.81
6930;DHT22;3504;52.616;13.238;2022-12-18T05:59:59;-5.05;84.98
6930;DHT22;3504;52.616;13.238;2022-12-18T06:05:00;-5.11;85.18
6930;DHT22;3504;52.616;13.238;2022-12-18T06:10:00;-5.05;84.53
6930;DHT22;3504;52.616;13.238;2022-12-18T06:15:01;-5.13;85.34
6930;DHT22;3504;52.616;13.238;2022-12-18T06:20:03;-5.04;84.88
6930;DHT22;3504;52.616;13.238;2022-12-18T06:25:05;-5.01;84.82
6930;DHT22;3504;52.616;13.238;2022-12-18T06:30:06;-4.97;84.80
6930;DHT22;3504;52.616;13.238;2022-12-18T06:35:07;-4.94;84.92
6930;DHT22;3504;52.616;13.238;2022-12-18T06:40:08;-4.91;84.95
6930;DHT22;3504;52.616;13.238;2022-12-18T06:45:09;-4.95;84.75
6930;DHT22;3504;52.616;13.238;2022-12-18T06:50:10;-4.95;84.98
6930;DHT22;3504;52.616;13.238;2022-12-18T06:55:11;-4.90;84.76
6930;DHT22;3504;52.616;13.238;2022-12-18T07:00:12;-4.94;84.90
6930;DHT22;3504;52.616;13.238;2022-12-18T07:05:13;-4.91;84.79
6930;DHT22;3504;52.616;13.238;2022-12-18T07:10:14;-4.90;84.72
6930;DHT22;3504;52.616;13.238;2022-12-18T07:15:15;-4.85;84.66
6930;DHT22;3504;52.616;13.238;2022-12-18T07:20:15;-4.95;84.45
6930;DHT22;3504;52.616;13.238;2022-12-18T07:25:16;-4.97;84.68
6930;DHT22;3504;52.616;13.238;2022-12-18T07:30:16;-4.84;84.93
6930;DHT22;3504;52.616;13.238;2022-12-18T07:35:17;-4.93;84.28
6930;DHT22;3504;52.616;13.238;2022-12-18T07:40:17;-4.98;84.81
6930;DHT22;3504;52.616;13.238;2022-12-18T07:45:18;-4.88;84.81
6930;DHT22;3504;52.616;13.238;2022-12-18T07:50:18;-4.88;84.72
6930;DHT22;3504;52.616;13.238;2022-12-18T07:55:19;-4.90;84.73
6930;DHT22;3504;52.616;13.238;2022-12-18T08:00:19;-4.95;84.74
6930;DHT22;3504;52.616;13.238;2022-12-18T08:05:20;-4.87;84.85
6930;DHT22;3504;52.616;13.238;2022-12-18T08:10:21;-4.90;84.83
6930;DHT22;3504;52.616;13.238;2022-12-18T08:15:22;-4.87;84.74
6930;DHT22;3504;52.616;13.238;2022-12-18T08:20:22;-4.90;84.89
6930;DHT22;3504;52.616;13.238;2022-12-18T08:25:23;-4.84;84.48
6930;DHT22;3504;52.616;13.238;2022-12-18T08:30:26;-4.88;85.03
6930;DHT22;3504;52.616;13.238;2022-12-18T08:35:26;-4.84;84.92
6930;DHT22;3504;52.616;13.238;2022-12-18T08:40:27;-4.94;85.25
6930;DHT22;3504;52.616;13.238;2022-12-18T08:45:27;-4.90;85.46
6930;DHT22;3504;52.616;13.238;2022-12-18T08:50:28;-4.81;85.57
6930;DHT22;3504;52.616;13.238;2022-12-18T08:55:28;-4.74;85.58
6930;DHT22;3504;52.616;13.238;2022-12-18T09:00:29;-4.76;85.47
6930;DHT22;3504;52.616;13.238;2022-12-18T09:05:33;-4.69;85.52
6930;DHT22;3504;52.616;13.238;2022-12-18T09:10:40;-4.60;85.44
6930;DHT22;3504;52.616;13.238;2022-12-18T09:15:52;-4.52;85.35
6930;DHT22;3504;52.616;13.238;2022-12-18T09:20:53;-4.43;85.18
6930;DHT22;3504;52.616;13.238;2022-12-18T09:25:59;-4.31;85.07
6930;DHT22;3504;52.616;13.238;2022-12-18T09:31:05;-4.36;84.99
6930;DHT22;3504;52.616;13.238;2022-12-18T09:36:09;-4.35;85.25
6930;DHT22;3504;52.616;13.238;2022-12-18T09:41:36;-4.26;85.28
6930;DHT22;3504;52.616;13.238;2022-12-18T09:46:46;-4.33;85.27
6930;DHT22;3504;52.616;13.238;2022-12-18T09:52:00;-4.26;85.45
6930;DHT22;3504;52.616;13.238;2022-12-18T09:57:02;-4.19;85.14
6930;DHT22;3504;52.616;13.238;2022-12-18T10:02:19;-4.19;84.75
6930;DHT22;3504;52.616;13.238;2022-12-18T10:07:55;-4.18;84.80
6930;DHT22;3504;52.616;13.238;2022-12-18T10:18:50;-4.09;84.51
6930;DHT22;3504;52.616;13.238;2022-12-18T10:24:28;-3.98;84.59
6930;DHT22;3504;52.616;13.238;2022-12-18T10:29:30;-3.84;84.24
6930;DHT22;3504;52.616;13.238;2022-12-18T10:34:31;-3.74;83.95
6930;DHT22;3504;52.616;13.238;2022-12-18T10:39:31;-3.78;83.67
6930;DHT22;3504;52.616;13.238;2022-12-18T10:44:34;-3.70;84.57
6930;DHT22;3504;52.616;13.238;2022-12-18T10:49:35;-3.71;84.39
6930;DHT22;3504;52.616;13.238;2022-12-18T10:54:36;-3.70;84.40
6930;DHT22;3504;52.616;13.238;2022-12-18T10:59:55;-3.77;84.79
6930;DHT22;3504;52.616;13.238;2022-12-18T11:04:56;-3.84;85.07
6930;DHT22;3504;52.616;13.238;2022-12-18T11:10:03;-3.81;85.56
6930;DHT22;3504;52.616;13.238;2022-12-18T11:15:04;-3.71;85.58
6930;DHT22;3504;52.616;13.238;2022-12-18T11:20:23;-3.59;85.81
6930;DHT22;3504;52.616;13.238;2022-12-18T11:25:27;-3.49;85.67
6930;DHT22;3504;52.616;13.238;2022-12-18T11:30:37;-3.42;85.51
6930;DHT22;3504;52.616;13.238;2022-12-18T11:35:56;-3.27;85.59
6930;DHT22;3504;52.616;13.238;2022-12-18T11:41:04;-3.29;85.27
6930;DHT22;3504;52.616;13.238;2022-12-18T11:46:12;-3.18;85.41
6930;DHT22;3504;52.616;13.238;2022-12-18T11:51:27;-3.05;85.17
6930;DHT22;3504;52.616;13.238;2022-12-18T11:56:36;-2.96;84.79
6930;DHT22;3504;52.616;13.238;2022-12-18T12:01:54;-2.92;84.97
6930;DHT22;3504;52.616;13.238;2022-12-18T12:07:34;-2.89;84.91
6930;DHT22;3504;52.616;13.238;2022-12-18T12:18:53;-2.81;84.82
6930;DHT22;3504;52.616;13.238;2022-12-18T12:24:35;-2.74;84.83
6930;DHT22;3504;52.616;13.238;2022-12-18T12:30:03;-2.75;84.83
6930;DHT22;3504;52.616;13.238;2022-12-18T12:35:47;-2.83;84.78
6930;DHT22;3504;52.616;13.238;2022-12-18T12:41:08;-2.84;85.05
6930;DHT22;3504;52.616;13.238;2022-12-18T12:46:32;-2.88;85.42
6930;DHT22;3504;52.616;13.238;2022-12-18T12:51:38;-2.78;85.31
6930;DHT22;3504;52.616;13.238;2022-12-18T12:56:54;-2.81;85.06
6930;DHT22;3504;52.616;13.238;2022-12-18T13:07:28;-2.88;85.19
6930;DHT22;3504;52.616;13.238;2022-12-18T13:12:31;-2.85;84.71
6930;DHT22;3504;52.616;13.238;2022-12-18T13:18:23;-2.92;85.17
6930;DHT22;3504;52.616;13.238;2022-12-18T13:33:45;-3.09;85.11
6930;DHT22;3504;52.616;13.238;2022-12-18T13:38:45;-3.11;85.49
6930;DHT22;3504;52.616;13.238;2022-12-18T13:43:54;-3.06;85.54
6930;DHT22;3504;52.616;13.238;2022-12-18T13:49:15;-2.99;85.25
6930;DHT22;3504;52.616;13.238;2022-12-18T13:54:39;-3.02;85.14
6930;DHT22;3504;52.616;13.238;2022-12-18T13:59:40;-3.05;85.11
6930;DHT22;3504;52.616;13.238;2022-12-18T14:04:41;-3.02;85.19
6930;DHT22;3504;52.616;13.238;2022-12-18T14:09:47;-3.05;85.08
6930;DHT22;3504;52.616;13.238;2022-12-18T14:14:51;-3.06;85.49
6930;DHT22;3504;52.616;13.238;2022-12-18T14:19:52;-3.09;85.41
6930;DHT22;3504;52.616;13.238;2022-12-18T14:25:29;-3.16;85.64
6930;DHT22;3504;52.616;13.238;2022-12-18T14:30:35;-3.06;85.48
6930;DHT22;3504;52.616;13.238;2022-12-18T14:35:56;-3.08;85.52
6930;DHT22;3504;52.616;13.238;2022-12-18T14:41:03;-3.15;85.68
6930;DHT22;3504;52.616;13.238;2022-12-18T14:51:27;-2.99;85.49
6930;DHT22;3504;52.616;13.238;2022-12-18T14:56:35;-3.01;85.16
6930;DHT22;3504;52.616;13.238;2022-12-18T15:01:38;-3.05;85.03
6930;DHT22;3504;52.616;13.238;2022-12-18T15:06:45;-3.18;85.11
6930;DHT22;3504;52.616;13.238;2022-12-18T15:11:46;-3.11;85.18
6930;DHT22;3504;52.616;13.238;2022-12-18T15:16:54;-3.08;84.91
6930;DHT22;3504;52.616;13.238;2022-12-18T15:21:54;-3.12;85.27
6930;DHT22;3504;52.616;13.238;2022-12-18T15:26:59;-3.05;85.17
6930;DHT22;3504;52.616;13.238;2022-12-18T15:32:05;-3.09;85.21
6930;DHT22;3504;52.616;13.238;2022-12-18T15:37:15;-3.06;85.22
6930;DHT22;3504;52.616;13.238;2022-12-18T15:42:16;-3.26;84.99
6930;DHT22;3504;52.616;13.238;2022-12-18T15:47:35;-3.36;84.97
6930;DHT22;3504;52.616;13.238;2022-12-18T15:52:44;-3.35;85.24
6930;DHT22;3504;52.616;13.238;2022-12-18T15:57:45;-3.32;84.70
6930;DHT22;3504;52.616;13.238;2022-12-18T16:02:46;-3.39;84.61
6930;DHT22;3504;52.616;13.238;2022-12-18T16:07:47;-3.36;84.88
6930;DHT22;3504;52.616;13.238;2022-12-18T16:12:48;-3.30;84.91
6930;DHT22;3504;52.616;13.238;2022-12-18T16:17:48;-3.30;84.96
6930;DHT22;3504;52.616;13.238;2022-12-18T16:22:49;-3.35;84.87
6930;DHT22;3504;52.616;13.238;2022-12-18T16:27:51;-3.49;84.62
6930;DHT22;3504;52.616;13.238;2022-12-18T16:32:51;-3.54;84.56
6930;DHT22;3504;52.616;13.238;2022-12-18T16:37:52;-3.66;84.92
6930;DHT22;3504;52.616;13.238;2022-12-18T16:42:53;-3.70;85.36
6930;DHT22;3504;52.616;13.238;2022-12-18T16:47:53;-3.63;85.49
6930;DHT22;3504;52.616;13.238;2022-12-18T16:52:54;-3.56;85.35
6930;DHT22;3504;52.616;13.238;2022-12-18T16:57:54;-3.56;85.37
6930;DHT22;3504;52.616;13.238;2022-12-18T17:02:55;-3.51;85.07
6930;DHT22;3504;52.616;13.238;2022-12-18T17:07:55;-3.57;84.72
6930;DHT22;3504;52.616;13.238;2022-12-18T17:12:56;-3.49;84.59
6930;DHT22;3504;52.616;13.238;2022-12-18T17:17:56;-3.50;84.33
6930;DHT22;3504;52.616;13.238;2022-12-18T17:22:57;-3.51;84.51
6930;DHT22;3504;52.616;13.238;2022-12-18T17:27:58;-3.54;84.57
6930;DHT22;3504;52.616;13.238;2022-12-18T17:32:58;-3.47;84.55
6930;DHT22;3504;52.616;13.238;2022-12-18T17:37:59;-3.47;84.31
6930;DHT22;3504;52.616;13.238;2022-12-18T17:42:59;-3.47;84.36
6930;DHT22;3504;52.616;13.238;2022-12-18T17:48:00;-3.43;84.24
6930;DHT22;3504;52.616;13.238;2022-12-18T17:53:00;-3.53;84.22
6930;DHT22;3504;52.616;13.238;2022-12-18T17:58:01;-3.54;84.38
6930;DHT22;3504;52.616;13.238;2022-12-18T18:03:01;-3.51;84.35
6930;DHT22;3504;52.616;13.238;2022-12-18T18:08:03;-3.53;84.37
6930;DHT22;3504;52.616;13.238;2022-12-18T18:13:05;-3.53;84.35
6930;DHT22;3504;52.616;13.238;2022-12-18T18:18:25;-3.54;84.14
6930;DHT22;3504;52.616;13.238;2022-12-18T18:23:25;-3.57;84.06
6930;DHT22;3504;52.616;13.238;2022-12-18T18:28:30;-3.63;84.11
6930;DHT22;3504;52.616;13.238;2022-12-18T18:33:32;-3.76;84.60
6930;DHT22;3504;52.616;13.238;2022-12-18T18:38:33;-3.70;84.41
6930;DHT22;3504;52.616;13.238;2022-12-18T18:43:33;-3.68;84.32
6930;DHT22;3504;52.616;13.238;2022-12-18T18:48:35;-3.68;84.36
6930;DHT22;3504;52.616;13.238;2022-12-18T18:53:39;-3.77;84.55
6930;DHT22;3504;52.616;13.238;2022-12-18T18:58:40;-3.77;84.52
6930;DHT22;3504;52.616;13.238;2022-12-18T19:03:41;-3.73;84.30
6930;DHT22;3504;52.616;13.238;2022-12-18T19:08:42;-3.80;84.03
6930;DHT22;3504;52.616;13.238;2022-12-18T19:13:44;-3.73;84.18
6930;DHT22;3504;52.616;13.238;2022-12-18T19:18:44;-3.68;83.99
6930;DHT22;3504;52.616;13.238;2022-12-18T19:23:50;-3.73;83.89
6930;DHT22;3504;52.616;13.238;2022-12-18T19:28:50;-3.73;84.05
6930;DHT22;3504;52.616;13.238;2022-12-18T19:33:51;-3.73;83.73
6930;DHT22;3504;52.616;13.238;2022-12-18T19:38:54;-3.78;83.82
6930;DHT22;3504;52.616;13.238;2022-12-18T19:43:55;-3.74;83.63
6930;DHT22;3504;52.616;13.238;2022-12-18T19:48:59;-3.71;83.62
6930;DHT22;3504;52.616;13.238;2022-12-18T19:54:00;-3.68;83.44
6930;DHT22;3504;52.616;13.238;2022-12-18T19:59:03;-3.64;83.30
6930;DHT22;3504;52.616;13.238;2022-12-18T20:04:03;-3.64;83.07
6930;DHT22;3504;52.616;13.238;2022-12-18T20:09:05;-3.67;82.95
6930;DHT22;3504;52.616;13.238;2022-12-18T20:14:06;-3.71;83.12
6930;DHT22;3504;52.616;13.238;2022-12-18T20:19:07;-3.70;82.91
6930;DHT22;3504;52.616;13.238;2022-12-18T20:24:10;-3.73;82.93
6930;DHT22;3504;52.616;13.238;2022-12-18T20:29:10;-3.67;82.80
6930;DHT22;3504;52.616;13.238;2022-12-18T20:34:11;-3.66;82.50
6930;DHT22;3504;52.616;13.238;2022-12-18T20:39:11;-3.68;82.31
6930;DHT22;3504;52.616;13.238;2022-12-18T20:44:14;-3.73;82.33
6930;DHT22;3504;52.616;13.238;2022-12-18T20:49:15;-3.74;82.32
6930;DHT22;3504;52.616;13.238;2022-12-18T20:54:16;-3.67;82.55
6930;DHT22;3504;52.616;13.238;2022-12-18T20:59:19;-3.67;82.23
6930;DHT22;3504;52.616;13.238;2022-12-18T21:04:20;-3.66;81.89
6930;DHT22;3504;52.616;13.238;2022-12-18T21:09:22;-3.71;81.75
6930;DHT22;3504;52.616;13.238;2022-12-18T21:14:26;-3.71;81.61
6930;DHT22;3504;52.616;13.238;2022-12-18T21:19:27;-3.70;81.86
6930;DHT22;3504;52.616;13.238;2022-12-18T21:24:28;-3.68;81.75
6930;DHT22;3504;52.616;13.238;2022-12-18T21:29:29;-3.71;81.56
6930;DHT22;3504;52.616;13.238;2022-12-18T21:34:31;-3.74;81.66
6930;DHT22;3504;52.616;13.238;2022-12-18T21:39:31;-3.71;81.50
6930;DHT22;3504;52.616;13.238;2022-12-18T21:44:32;-3.71;81.57
6930;DHT22;3504;52.616;13.238;2022-12-18T21:49:33;-3.66;81.52
6930;DHT22;3504;52.616;13.238;2022-12-18T21:54:33;-3.61;81.39
6930;DHT22;3504;52.616;13.238;2022-12-18T21:59:37;-3.64;81.13
6930;DHT22;3504;52.616;13.238;2022-12-18T22:04:38;-3.64;81.24
6930;DHT22;3504;52.616;13.238;2022-12-18T22:09:39;-3.67;80.97
6930;DHT22;3504;52.616;13.238;2022-12-18T22:14:39;-3.71;81.02
6930;DHT22;3504;52.616;13.238;2022-12-18T22:19:40;-3.68;80.99
6930;DHT22;3504;52.616;13.238;2022-12-18T22:24:40;-3.70;80.74
6930;DHT22;3504;52.616;13.238;2022-12-18T22:29:41;-3.63;80.98
6930;DHT22;3504;52.616;13.238;2022-12-18T22:35:02;-3.64;80.82
6930;DHT22;3504;52.616;13.238;2022-12-18T22:40:05;-3.59;80.70
6930;DHT22;3504;52.616;13.238;2022-12-18T22:45:06;-3.56;80.48
6930;DHT22;3504;52.616;13.238;2022-12-18T22:50:08;-3.54;80.32
6930;DHT22;3504;52.616;13.238;2022-12-18T22:55:09;-3.50;80.07
6930;DHT22;3504;52.616;13.238;2022-12-18T23:00:10;-3.49;79.82
6930;DHT22;3504;52.616;13.238;2022-12-18T23:05:10;-3.46;79.60
6930;DHT22;3504;52.616;13.238;2022-12-18T23:10:11;-3.47;79.34
6930;DHT22;3504;52.616;13.238;2022-12-18T23:15:11;-3.42;79.44
6930;DHT22;3504;52.616;13.238;2022-12-18T23:20:12;-3.50;79.15
6930;DHT22;3504;52.616;13.238;2022-12-18T23:25:13;-3.46;79.16
6930;DHT22;3504;52.616;13.238;2022-12-18T23:30:13;-3.46;78.92
6930;DHT22;3504;52.616;13.238;2022-12-18T23:35:15;-3.44;78.92
6930;DHT22;3504;52.616;13.238;2022-12-18T23:40:15;-3.43;78.88
6930;DHT22;3504;52.616;13.238;2022-12-18T23:45:16;-3.40;78.75
6930;DHT22;3504;52.616;13.238;2022-12-18T23:50:16;-3.39;78.54
6930;DHT22;3504;52.616;13.238;2022-12-18T23:55:17;-3.39;78.48
